30NC weather

Public forecast

Using degrees Fahrenheit for public forecast. Weather courtesy of forecast.io.

Closest aviation weather report (METAR) to Happy Bottom Airport

Closest report is Smith Reynolds Airport, 12.5 nm (23.1 km) ENE. Retrieved 2020/08/12 23:07 UTC (0 seconds ago):

KINT 122307Z 28005KT 3SM -RA BR BKN036 BKN075 OVC100 25/25 A3004 RMK AO2 LTG DSNT W P0009 T02500250

Closest aviation forecast (TAF) to Happy Bottom Airport

Closest forecast is Smith Reynolds Airport, 12.5 nm (23.1 km) ENE. Retrieved 2020/08/12 18:24 UTC (5 hours ago):

TAF KINT 121722Z 1218/1318 VRB05KT P6SM -SHRA SCT035 BKN050 BKN090 FM121900 VRB05KT P6SM SCT045 BKN060 FM130300 VRB05KT 6SM BR VCTS SCT045CB BKN080 FM130700 VRB05KT 5SM BR SCT050 SCT120 FM130900 VRB04KT 3SM BR BKN005 FM131400 VRB05KT P6SM SCT015 SCT035